Terminal Aerodrome Forecast
Issued by NWS Cleveland, OH

Home | Current Version | Previous Version | Graphics & Text | Print | Product List | Glossary On
Versions: 1 2 3 4 5 6 7 8 9 10 11 12 13 14 15 16 17 18 19 20 21 22 23 24 25 26
000
FTUS41 KCLE 291700 RRA
TAFMFD
TAF
KMFD 291746Z 2918/3018 30005KT P6SM BKN050
     FM300000 VRB04KT P6SM SCT250
     FM300900 24005KT 4SM BR SCT100 BKN250
     FM301200 28005KT 5SM BR VCSH SCT015 BKN040 OVC100
     FM301400 30006KT 6SM BR VCSH BKN006 OVC015=

USA.gov is the U.S. government's official web portal to all federal, state and local government web resources and services.